createdAt,value
2019-02-23T00:00:12.742Z,103276.70
2019-02-23T00:02:40.937Z,103279.00
2019-02-23T00:05:07.256Z,103279.79
2019-02-23T00:07:33.561Z,103280.07
2019-02-23T00:09:59.795Z,103280.13
2019-02-23T00:12:26.075Z,103283.60
2019-02-23T00:14:52.295Z,103277.76
2019-02-23T00:17:18.412Z,103271.26
2019-02-23T00:19:44.542Z,103274.97
2019-02-23T00:22:10.792Z,103266.89
2019-02-23T00:24:36.903Z,103266.76
2019-02-23T00:27:03.176Z,103270.14
2019-02-23T00:29:29.512Z,103267.49
2019-02-23T00:31:55.636Z,103274.69
2019-02-23T00:34:21.864Z,103273.94
2019-02-23T00:36:48.035Z,103279.84
2019-02-23T00:39:14.260Z,103284.77
2019-02-23T00:41:40.479Z,103283.20
2019-02-23T00:44:06.583Z,103279.09
2019-02-23T00:46:33.959Z,103276.02
2019-02-23T00:49:00.085Z,103274.40
2019-02-23T00:51:26.289Z,103272.72
2019-02-23T00:53:52.511Z,103281.95
2019-02-23T00:56:18.761Z,103275.51
2019-02-23T00:58:44.851Z,103276.17
2019-02-23T01:01:11.205Z,103289.41
2019-02-23T01:03:37.404Z,103273.20
2019-02-23T01:06:03.776Z,103276.30
2019-02-23T01:08:29.873Z,103277.08
2019-02-23T01:10:58.331Z,103269.34
2019-02-23T01:13:24.204Z,103271.02
2019-02-23T01:15:51.611Z,103269.39
2019-02-23T01:18:17.918Z,103270.40
2019-02-23T01:20:44.279Z,103274.11
2019-02-23T01:23:10.610Z,103275.05
2019-02-23T01:25:36.780Z,103279.20
2019-02-23T01:28:03.262Z,103278.27
2019-02-23T01:30:29.509Z,103273.09
2019-02-23T01:32:55.730Z,103279.47
2019-02-23T01:35:21.965Z,103278.23
2019-02-23T01:37:48.378Z,103283.70
2019-02-23T01:40:14.988Z,103275.60
2019-02-23T01:42:41.060Z,103273.92
2019-02-23T01:45:07.683Z,103270.52
2019-02-23T01:47:34.119Z,103272.20
2019-02-23T01:50:00.452Z,103263.95
2019-02-23T01:52:26.760Z,103255.23
2019-02-23T01:54:52.865Z,103253.58
2019-02-23T01:57:18.962Z,103251.91
2019-02-23T01:59:45.222Z,103249.67
2019-02-23T02:02:12.065Z,103245.27
2019-02-23T02:04:38.510Z,103237.82
2019-02-23T02:07:04.802Z,103234.64
2019-02-23T02:09:31.085Z,103235.98
2019-02-23T02:11:57.600Z,103236.20
2019-02-23T02:14:23.811Z,103237.66
2019-02-23T02:16:49.976Z,103235.03
2019-02-23T02:19:16.108Z,103232.63
2019-02-23T02:21:42.340Z,103222.20
2019-02-23T02:24:08.742Z,103223.15
2019-02-23T02:26:34.946Z,103224.89
2019-02-23T02:29:02.441Z,103211.20
2019-02-23T02:31:28.736Z,103210.89
2019-02-23T02:34:06.962Z,103206.52
2019-02-23T02:36:33.343Z,103206.28
2019-02-23T02:38:59.450Z,103206.03
2019-02-23T02:41:25.702Z,103208.99
2019-02-23T02:43:51.932Z,103206.42
2019-02-23T02:46:18.131Z,103203.78
2019-02-23T02:48:44.495Z,103200.23
2019-02-23T02:51:10.854Z,103198.27
2019-02-23T02:53:37.211Z,103190.84
2019-02-23T02:56:03.641Z,103182.24
2019-02-23T02:58:29.767Z,103185.27
2019-02-23T03:00:56.101Z,103182.91
2019-02-23T03:03:22.362Z,103180.81
2019-02-23T03:05:48.567Z,103175.13
2019-02-23T03:08:14.930Z,103179.83
2019-02-23T03:10:41.090Z,103183.77
2019-02-23T03:13:07.413Z,103181.52
2019-02-23T03:15:33.695Z,103183.24
2019-02-23T03:17:59.941Z,103182.25
2019-02-23T03:20:36.184Z,103179.08
2019-02-23T03:22:54.287Z,103179.98
2019-02-23T03:25:20.418Z,103171.67
2019-02-23T03:27:46.549Z,103168.87
2019-02-23T03:30:12.935Z,103165.93
2019-02-23T03:32:39.097Z,103156.38
2019-02-23T03:35:05.541Z,103162.00
2019-02-23T03:37:31.705Z,103159.64
2019-02-23T03:39:57.903Z,103159.34
2019-02-23T03:42:24.151Z,103161.06
2019-02-23T03:44:50.354Z,103161.66
2019-02-23T03:47:16.638Z,103159.86
2019-02-23T03:49:42.856Z,103171.44
2019-02-23T03:52:09.146Z,103177.34
2019-02-23T03:54:35.445Z,103184.80
2019-02-23T03:57:01.670Z,103178.03
2019-02-23T03:59:27.964Z,103176.72
2019-02-23T04:01:54.167Z,103181.22
2019-02-23T04:04:20.289Z,103184.01
2019-02-23T04:06:46.505Z,103182.29
2019-02-23T04:09:12.773Z,103180.45
2019-02-23T04:11:39.020Z,103177.06
2019-02-23T04:14:08.745Z,103186.15
2019-02-23T04:16:34.887Z,103190.38
2019-02-23T04:19:05.364Z,103189.70
2019-02-23T04:21:31.471Z,103189.91
2019-02-23T04:23:57.577Z,103190.81
2019-02-23T04:26:23.894Z,103193.55
2019-02-23T04:28:50.235Z,103191.54
2019-02-23T04:31:23.907Z,103198.52
2019-02-23T04:33:50.084Z,103199.25
2019-02-23T04:36:16.243Z,103200.35
2019-02-23T04:38:42.501Z,103208.52
2019-02-23T04:41:09.345Z,103209.65
2019-02-23T04:43:35.477Z,103205.98
2019-02-23T04:46:16.119Z,103208.63
2019-02-23T04:48:42.522Z,103216.74
2019-02-23T04:51:14.187Z,103210.53
2019-02-23T04:53:36.820Z,103212.03
2019-02-23T04:56:09.507Z,103218.79
2019-02-23T04:58:35.726Z,103228.72
2019-02-23T05:01:14.663Z,103223.95
2019-02-23T05:03:40.896Z,103227.91
2019-02-23T05:06:07.128Z,103248.25
2019-02-23T05:08:33.648Z,103248.53
2019-02-23T05:10:59.947Z,103255.30
2019-02-23T05:13:26.128Z,103259.14
2019-02-23T05:15:52.442Z,103254.05
2019-02-23T05:18:18.647Z,103246.89
2019-02-23T05:20:44.863Z,103243.33
2019-02-23T05:23:11.007Z,103241.41
2019-02-23T05:25:37.091Z,103237.36
2019-02-23T05:28:06.073Z,103238.53
2019-02-23T05:30:32.426Z,103233.05
2019-02-23T05:32:58.736Z,103229.77
2019-02-23T05:35:24.938Z,103239.82
2019-02-23T05:37:53.000Z,103242.17
2019-02-23T05:40:24.044Z,103237.36
2019-02-23T05:43:00.582Z,103242.98
2019-02-23T05:45:19.783Z,103246.81
2019-02-23T05:47:46.110Z,103245.33
2019-02-23T05:50:12.219Z,103249.80
2019-02-23T05:52:38.452Z,103262.05
2019-02-23T05:55:06.311Z,103265.27
2019-02-23T05:57:32.446Z,103270.09
2019-02-23T05:59:58.580Z,103272.86
2019-02-23T06:02:24.884Z,103271.58
2019-02-23T06:04:50.985Z,103263.44
2019-02-23T06:07:17.266Z,103258.69
2019-02-23T06:09:43.897Z,103259.16
2019-02-23T06:12:10.307Z,103253.58
2019-02-23T06:14:36.596Z,103253.89
2019-02-23T06:17:06.806Z,103268.97
2019-02-23T06:19:32.935Z,103261.27
2019-02-23T06:21:59.141Z,103267.16
2019-02-23T06:24:25.355Z,103279.41
2019-02-23T06:26:51.953Z,103279.44
2019-02-23T06:29:18.364Z,103280.40
2019-02-23T06:31:44.664Z,103275.84
2019-02-23T06:34:16.136Z,103277.91
2019-02-23T06:36:38.918Z,103268.53
2019-02-23T06:39:07.439Z,103269.49
2019-02-23T06:41:33.855Z,103266.81
2019-02-23T06:44:00.070Z,103258.80
2019-02-23T06:46:26.191Z,103264.37
2019-02-23T06:48:52.552Z,103265.84
2019-02-23T06:51:19.187Z,103263.92
2019-02-23T06:53:45.741Z,103269.66
2019-02-23T06:56:12.075Z,103276.19
2019-02-23T06:58:38.660Z,103280.40
2019-02-23T07:01:06.624Z,103284.45
2019-02-23T07:03:32.759Z,103279.20
2019-02-23T07:05:59.025Z,103279.45
2019-02-23T07:08:25.383Z,103281.24
2019-02-23T07:10:51.641Z,103274.07
2019-02-23T07:13:17.998Z,103279.00
2019-02-23T07:15:44.256Z,103282.82
2019-02-23T07:18:10.502Z,103285.65
2019-02-23T07:20:44.138Z,103278.06
2019-02-23T07:25:37.347Z,103273.92
2019-02-23T07:28:05.971Z,103279.05
2019-02-23T07:30:32.996Z,103279.17
2019-02-23T07:32:59.164Z,103280.13
2019-02-23T07:35:26.431Z,103272.53
2019-02-23T07:37:52.766Z,103270.68
2019-02-23T07:40:19.033Z,103268.27
2019-02-23T07:42:45.120Z,103274.98
2019-02-23T07:45:11.576Z,103275.00
2019-02-23T07:47:38.799Z,103277.16
2019-02-23T07:50:13.520Z,103266.57
2019-02-23T07:52:39.959Z,103275.98
2019-02-23T07:55:13.333Z,103278.06
2019-02-23T07:57:39.580Z,103287.19
2019-02-23T08:00:09.779Z,103285.97
2019-02-23T08:02:41.903Z,103291.70
2019-02-23T08:05:08.865Z,103299.41
2019-02-23T08:07:35.159Z,103300.23
2019-02-23T08:10:10.459Z,103307.56
2019-02-23T08:12:36.801Z,103316.72
2019-02-23T08:15:09.612Z,103314.15
2019-02-23T08:17:38.593Z,103317.65
2019-02-23T08:20:18.093Z,103319.44
2019-02-23T08:22:44.301Z,103318.39
2019-02-23T08:25:14.425Z,103315.64
2019-02-23T08:27:40.952Z,103318.03
2019-02-23T08:30:12.740Z,103319.50
2019-02-23T08:32:39.189Z,103324.69
2019-02-23T08:35:12.868Z,103332.72
2019-02-23T08:37:44.261Z,103324.36
2019-02-23T08:40:12.384Z,103303.02
2019-02-23T08:42:38.621Z,103296.20
2019-02-23T08:45:07.237Z,103295.70
2019-02-23T08:47:33.541Z,103306.08
2019-02-23T08:49:59.633Z,103313.70
2019-02-23T08:52:25.976Z,103306.98
2019-02-23T08:54:52.184Z,103299.80
2019-02-23T08:57:19.492Z,103309.47
2019-02-23T08:59:45.712Z,103309.31
2019-02-23T09:02:11.951Z,103307.95
2019-02-23T09:04:38.240Z,103309.67
2019-02-23T09:07:04.398Z,103305.58
2019-02-23T09:09:30.626Z,103304.58
2019-02-23T09:11:56.827Z,103290.58
2019-02-23T09:14:22.958Z,103293.77
2019-02-23T09:16:49.038Z,103292.22
2019-02-23T09:19:15.283Z,103283.09
2019-02-23T09:21:41.719Z,103283.11
2019-02-23T09:24:07.862Z,103287.09
2019-02-23T09:26:34.111Z,103293.88
2019-02-23T09:29:00.437Z,103293.81
2019-02-23T09:31:26.811Z,103294.20
2019-02-23T09:33:53.269Z,103293.89
2019-02-23T09:36:19.512Z,103291.53
2019-02-23T09:38:45.722Z,103298.77
2019-02-23T09:41:11.959Z,103300.76
2019-02-23T09:43:38.317Z,103296.82
2019-02-23T09:46:04.429Z,103286.45
2019-02-23T09:48:30.891Z,103292.59
2019-02-23T09:50:57.128Z,103298.11
2019-02-23T09:53:23.466Z,103287.31
2019-02-23T09:55:49.778Z,103284.80
2019-02-23T09:58:16.250Z,103280.75
2019-02-23T10:00:42.664Z,103278.23
2019-02-23T10:03:08.880Z,103273.06
2019-02-23T10:05:34.984Z,103273.06
2019-02-23T10:08:01.235Z,103275.44
2019-02-23T10:10:27.326Z,103269.31
2019-02-23T10:12:54.618Z,103274.53
2019-02-23T10:15:20.933Z,103267.13
2019-02-23T10:17:47.062Z,103259.96
2019-02-23T10:20:14.291Z,103259.74
2019-02-23T10:22:40.650Z,103252.88
2019-02-23T10:25:07.199Z,103256.53
2019-02-23T10:27:33.563Z,103256.59
2019-02-23T10:30:00.006Z,103252.25
2019-02-23T10:32:26.823Z,103252.28
2019-02-23T10:34:53.071Z,103237.73
2019-02-23T10:37:19.325Z,103224.27
2019-02-23T10:39:45.604Z,103212.64
2019-02-23T10:42:11.839Z,103204.72
2019-02-23T10:44:38.081Z,103209.22
2019-02-23T10:47:04.321Z,103208.58
2019-02-23T10:49:30.486Z,103208.52
2019-02-23T10:51:56.877Z,103199.64
2019-02-23T10:54:23.261Z,103207.84
2019-02-23T10:56:49.561Z,103207.80
2019-02-23T10:59:15.904Z,103203.58
2019-02-23T11:01:43.413Z,103207.39
2019-02-23T11:04:09.882Z,103211.38
2019-02-23T11:06:38.413Z,103201.53
2019-02-23T11:09:07.096Z,103199.56
2019-02-23T11:11:34.841Z,103191.25
2019-02-23T11:14:01.144Z,103185.53
2019-02-23T11:16:27.469Z,103190.13
2019-02-23T11:18:53.584Z,103194.62
2019-02-23T11:21:19.981Z,103198.48
2019-02-23T11:23:46.279Z,103197.31
2019-02-23T11:26:12.644Z,103201.44
2019-02-23T11:28:39.044Z,103197.49
2019-02-23T11:31:06.300Z,103194.77
2019-02-23T11:33:32.765Z,103191.45
2019-02-23T11:35:59.203Z,103190.02
2019-02-23T11:38:25.720Z,103181.94
2019-02-23T11:40:52.098Z,103185.36
2019-02-23T11:43:18.558Z,103188.16
2019-02-23T11:45:45.153Z,103182.46
2019-02-23T11:48:11.514Z,103181.11
2019-02-23T11:50:37.941Z,103181.48
2019-02-23T11:53:04.221Z,103175.56
2019-02-23T11:55:30.917Z,103173.55
2019-02-23T11:57:57.369Z,103165.81
2019-02-23T12:00:23.677Z,103161.28
2019-02-23T12:02:52.703Z,103161.68
2019-02-23T12:05:18.294Z,103165.69
2019-02-23T12:07:44.854Z,103155.36
2019-02-23T12:10:15.710Z,103151.02
2019-02-23T12:12:55.514Z,103150.48
2019-02-23T12:15:33.918Z,103145.99
2019-02-23T12:21:08.656Z,103128.56
2019-02-23T12:23:35.082Z,103134.65
2019-02-23T12:26:01.559Z,103124.09
2019-02-23T12:28:28.133Z,103122.88
2019-02-23T12:30:54.647Z,103117.78
2019-02-23T12:33:20.857Z,103118.62
2019-02-23T12:35:47.166Z,103105.91
2019-02-23T12:38:13.510Z,103104.16
2019-02-23T12:40:39.910Z,103100.31
2019-02-23T12:43:06.222Z,103101.70
2019-02-23T12:45:32.453Z,103099.70
2019-02-23T12:47:58.632Z,103096.91
2019-02-23T12:50:25.025Z,103092.77
2019-02-23T12:52:51.420Z,103083.40
2019-02-23T12:55:17.698Z,103082.44
2019-02-23T12:57:44.170Z,103074.28
2019-02-23T13:00:17.503Z,103073.44
2019-02-23T13:02:43.852Z,103074.16
2019-02-23T13:05:10.123Z,103062.55
2019-02-23T13:07:36.536Z,103062.72
2019-02-23T13:10:15.681Z,103062.02
2019-02-23T13:13:08.893Z,103060.81
2019-02-23T13:15:47.791Z,103059.23
2019-02-23T13:18:36.191Z,103059.88
2019-02-23T13:21:15.331Z,103060.24
2019-02-23T13:24:07.352Z,103057.41
2019-02-23T13:26:50.588Z,103056.12
2019-02-23T13:29:20.721Z,103054.38
2019-02-23T13:32:16.907Z,103063.00
2019-02-23T13:35:05.674Z,103062.07
2019-02-23T13:37:51.710Z,103062.52
2019-02-23T13:40:39.065Z,103057.05
2019-02-23T13:43:16.492Z,103056.60
2019-02-23T13:45:52.626Z,103052.72
2019-02-23T13:48:34.446Z,103052.58
2019-02-23T13:51:23.703Z,103053.89
2019-02-23T13:54:10.703Z,103045.78
2019-02-23T13:56:40.650Z,103044.57
2019-02-23T13:59:13.575Z,103037.02
2019-02-23T14:02:06.266Z,103043.99
2019-02-23T14:04:53.586Z,103055.29
2019-02-23T14:07:32.900Z,103042.70
2019-02-23T14:10:36.876Z,103046.45
2019-02-23T14:13:29.571Z,103039.25
2019-02-23T14:16:19.312Z,103046.94
2019-02-23T14:18:52.348Z,103049.23
2019-02-23T14:21:43.097Z,103052.12
2019-02-23T14:24:18.793Z,103048.16
2019-02-23T14:27:14.944Z,103050.31
2019-02-23T14:29:58.739Z,103053.47
2019-02-23T14:32:55.520Z,103042.85
2019-02-23T14:35:31.307Z,103035.06
2019-02-23T14:38:19.809Z,103031.42
2019-02-23T14:46:42.566Z,103034.45
2019-02-23T14:49:34.961Z,103033.70
2019-02-23T14:52:16.890Z,103024.25
2019-02-23T14:55:00.918Z,103018.98
2019-02-23T14:57:57.202Z,103018.42
2019-02-23T15:00:37.177Z,103017.08
2019-02-23T15:03:24.591Z,103012.59
2019-02-23T15:06:08.994Z,103021.61
2019-02-23T15:08:48.352Z,103019.61
2019-02-23T15:11:28.433Z,103026.53
2019-02-23T15:14:05.880Z,103028.16
2019-02-23T15:17:11.232Z,103027.47
2019-02-23T15:20:13.528Z,103027.71
2019-02-23T15:25:40.479Z,103030.30
2019-02-23T15:29:24.699Z,103025.29
2019-02-23T15:32:28.010Z,103028.56
2019-02-23T15:34:57.933Z,103021.69
2019-02-23T15:37:47.710Z,103025.45
2019-02-23T15:40:28.102Z,103021.64
2019-02-23T15:43:07.386Z,103022.38
2019-02-23T15:45:40.476Z,103015.63
2019-02-23T15:48:24.140Z,103019.14
2019-02-23T15:50:50.604Z,103027.89
2019-02-23T15:53:16.898Z,103029.79
2019-02-23T15:55:55.410Z,103037.30
2019-02-23T15:58:27.600Z,103037.79
2019-02-23T16:00:53.945Z,103044.05
2019-02-23T16:03:20.220Z,103052.11
2019-02-23T16:05:46.477Z,103048.00
2019-02-23T16:08:12.609Z,103051.50
2019-02-23T16:10:40.706Z,103052.09
2019-02-23T16:13:07.201Z,103055.52
2019-02-23T16:15:33.551Z,103055.11
2019-02-23T16:18:00.409Z,103052.40
2019-02-23T16:20:26.958Z,103042.88
2019-02-23T16:22:53.080Z,103044.11
2019-02-23T16:25:19.522Z,103048.22
2019-02-23T16:27:47.015Z,103049.06
2019-02-23T16:30:18.569Z,103039.78
2019-02-23T16:32:44.824Z,103039.16
2019-02-23T16:35:11.254Z,103040.44
2019-02-23T16:37:44.328Z,103035.75
2019-02-23T16:40:14.222Z,103035.09
2019-02-23T16:42:40.658Z,103041.88
2019-02-23T16:45:07.620Z,103039.56
2019-02-23T16:47:34.007Z,103037.34
2019-02-23T16:50:00.358Z,103041.36
2019-02-23T16:52:26.457Z,103038.20
2019-02-23T16:54:52.743Z,103039.24
2019-02-23T16:57:18.998Z,103036.03
2019-02-23T16:59:45.331Z,103040.56
2019-02-23T17:02:17.508Z,103041.86
2019-02-23T17:04:53.667Z,103035.63
2019-02-23T17:07:14.861Z,103039.63
2019-02-23T17:09:41.284Z,103038.72
2019-02-23T17:12:07.753Z,103033.74
2019-02-23T17:14:35.225Z,103038.45
2019-02-23T17:17:06.388Z,103043.15
2019-02-23T17:19:32.757Z,103043.36
2019-02-23T17:21:59.106Z,103046.88
2019-02-23T17:24:25.488Z,103052.08
2019-02-23T17:26:52.050Z,103049.13
2019-02-23T17:29:22.510Z,103047.55
2019-02-23T17:31:51.056Z,103053.02
2019-02-23T17:36:56.924Z,103058.73
2019-02-23T17:39:23.127Z,103063.70
2019-02-23T17:41:49.391Z,103069.22
2019-02-23T17:44:15.696Z,103063.91
2019-02-23T17:46:41.893Z,103068.84
2019-02-23T17:49:08.236Z,103061.50
2019-02-23T17:51:34.630Z,103057.78
2019-02-23T17:54:00.983Z,103055.95
2019-02-23T17:56:27.210Z,103056.98
2019-02-23T17:58:53.451Z,103055.33
2019-02-23T18:01:19.969Z,103067.18
2019-02-23T18:03:46.315Z,103059.26
2019-02-23T18:06:12.553Z,103059.25
2019-02-23T18:08:38.662Z,103063.00
2019-02-23T18:11:05.071Z,103058.42
2019-02-23T18:13:31.418Z,103059.91
2019-02-23T18:15:57.669Z,103057.39
2019-02-23T18:18:24.033Z,103057.89
2019-02-23T18:20:50.401Z,103064.64
2019-02-23T18:23:16.857Z,103065.09
2019-02-23T18:25:43.127Z,103061.48
2019-02-23T18:28:14.002Z,103059.55
2019-02-23T18:30:40.602Z,103058.09
2019-02-23T18:33:07.312Z,103061.41
2019-02-23T18:35:34.560Z,103058.98
2019-02-23T18:38:02.072Z,103056.03
2019-02-23T18:40:28.617Z,103061.18
2019-02-23T18:42:55.125Z,103053.70
2019-02-23T18:45:21.594Z,103056.03
2019-02-23T18:47:48.473Z,103051.41
2019-02-23T18:50:14.911Z,103057.48
2019-02-23T18:52:41.279Z,103049.41
2019-02-23T18:55:07.682Z,103057.59
2019-02-23T18:57:34.429Z,103043.61
2019-02-23T19:00:00.747Z,103053.05
2019-02-23T19:02:27.276Z,103054.45
2019-02-23T19:04:53.583Z,103053.55
2019-02-23T19:07:19.686Z,103051.41
2019-02-23T19:09:46.013Z,103054.39
2019-02-23T19:12:12.500Z,103054.44
2019-02-23T19:14:38.876Z,103049.78
2019-02-23T19:17:05.417Z,103058.86
2019-02-23T19:19:31.736Z,103052.92
2019-02-23T19:21:57.918Z,103057.58
2019-02-23T19:24:24.188Z,103054.77
2019-02-23T19:26:50.558Z,103058.39
2019-02-23T19:29:16.891Z,103053.20
2019-02-23T19:31:43.445Z,103046.13
2019-02-23T19:34:09.653Z,103050.40
2019-02-23T19:36:36.182Z,103051.70
2019-02-23T19:39:03.573Z,103046.77
2019-02-23T19:41:31.691Z,103043.67
2019-02-23T19:43:57.945Z,103048.83
2019-02-23T19:46:24.765Z,103052.45
2019-02-23T19:48:51.024Z,103050.65
2019-02-23T19:51:17.459Z,103057.37
2019-02-23T19:53:44.418Z,103052.47
2019-02-23T19:56:10.979Z,103046.91
2019-02-23T19:58:37.852Z,103045.24
2019-02-23T20:01:04.213Z,103042.38
2019-02-23T20:03:30.515Z,103042.66
2019-02-23T20:05:56.972Z,103045.25
2019-02-23T20:08:23.203Z,103041.72
2019-02-23T20:10:49.475Z,103045.77
2019-02-23T20:13:15.722Z,103043.45
2019-02-23T20:15:41.937Z,103042.14
2019-02-23T20:18:08.912Z,103051.98
2019-02-23T20:20:35.370Z,103048.11
2019-02-23T20:23:02.051Z,103053.30
2019-02-23T20:25:28.733Z,103052.75
2019-02-23T20:27:55.118Z,103053.94
2019-02-23T20:30:21.607Z,103054.19
2019-02-23T20:32:47.959Z,103054.58
2019-02-23T20:35:15.731Z,103061.55
2019-02-23T20:37:42.543Z,103068.02
2019-02-23T20:40:09.109Z,103056.64
2019-02-23T20:42:35.434Z,103057.42
2019-02-23T20:45:02.528Z,103056.92
2019-02-23T20:47:29.115Z,103057.68
2019-02-23T20:49:55.585Z,103053.05
2019-02-23T20:52:21.948Z,103054.34
2019-02-23T20:54:48.190Z,103049.41
2019-02-23T20:57:14.583Z,103053.43
2019-02-23T20:59:41.252Z,103043.98
2019-02-23T21:02:07.461Z,103054.58
2019-02-23T21:04:34.090Z,103055.62
2019-02-23T21:07:00.493Z,103062.83
2019-02-23T21:09:27.033Z,103061.28
2019-02-23T21:11:53.499Z,103068.00
2019-02-23T21:14:20.090Z,103071.87
2019-02-23T21:16:46.438Z,103061.28
2019-02-23T21:19:12.921Z,103066.98
2019-02-23T21:21:39.233Z,103069.02
2019-02-23T21:24:05.451Z,103071.47
2019-02-23T21:26:31.682Z,103067.19
2019-02-23T21:28:58.016Z,103062.53
2019-02-23T21:31:24.367Z,103058.92
2019-02-23T21:33:50.644Z,103063.73
2019-02-23T21:36:16.958Z,103064.22
2019-02-23T21:38:43.207Z,103058.65
2019-02-23T21:41:09.363Z,103063.32
2019-02-23T21:43:35.622Z,103063.31
2019-02-23T21:46:02.058Z,103064.69
2019-02-23T21:48:28.379Z,103066.63
2019-02-23T21:50:54.533Z,103070.00
2019-02-23T21:53:21.006Z,103068.20
2019-02-23T21:55:47.612Z,103076.83
2019-02-23T21:58:13.801Z,103070.62
2019-02-23T22:00:40.123Z,103068.27
2019-02-23T22:03:07.163Z,103065.32
2019-02-23T22:05:33.645Z,103062.74
2019-02-23T22:08:00.520Z,103069.48
2019-02-23T22:10:26.888Z,103080.81
2019-02-23T22:12:53.186Z,103073.55
2019-02-23T22:15:19.451Z,103069.59
2019-02-23T22:17:46.107Z,103060.94
2019-02-23T22:20:12.324Z,103067.38
2019-02-23T22:22:38.668Z,103062.62
2019-02-23T22:25:05.173Z,103060.27
2019-02-23T22:27:31.771Z,103066.86
2019-02-23T22:29:58.419Z,103068.13
2019-02-23T22:32:24.966Z,103060.89
2019-02-23T22:34:51.561Z,103058.06
2019-02-23T22:37:18.512Z,103060.91
2019-02-23T22:39:45.139Z,103066.30
2019-02-23T22:42:11.341Z,103060.61
2019-02-23T22:44:37.683Z,103052.06
2019-02-23T22:47:04.209Z,103053.87
2019-02-23T22:49:30.705Z,103059.54
2019-02-23T22:51:57.219Z,103056.34
2019-02-23T22:54:23.534Z,103054.14
2019-02-23T22:56:49.964Z,103052.83
2019-02-23T22:59:16.481Z,103058.88
2019-02-23T23:01:43.444Z,103055.50
2019-02-23T23:04:10.029Z,103055.64
2019-02-23T23:06:36.786Z,103051.25
2019-02-23T23:09:06.481Z,103054.94
2019-02-23T23:11:33.459Z,103051.67
2019-02-23T23:14:00.132Z,103052.21
2019-02-23T23:16:26.558Z,103047.73
2019-02-23T23:18:53.300Z,103055.04
2019-02-23T23:21:22.945Z,103042.45
2019-02-23T23:23:49.256Z,103047.33
2019-02-23T23:26:26.573Z,103050.92
2019-02-23T23:28:52.901Z,103049.09
2019-02-23T23:31:19.515Z,103048.68
2019-02-23T23:33:49.533Z,103047.22
2019-02-23T23:36:15.792Z,103038.52
2019-02-23T23:38:42.034Z,103041.36
2019-02-23T23:41:08.307Z,103037.02
2019-02-23T23:43:34.520Z,103034.17
2019-02-23T23:46:00.749Z,103035.55
2019-02-23T23:48:28.741Z,103027.98
2019-02-23T23:50:55.105Z,103025.14
2019-02-23T23:53:22.545Z,103024.45
2019-02-23T23:55:49.043Z,103026.28
2019-02-23T23:58:15.288Z,103023.08
